sensor_id;sensor_type;location;lat;lon;timestamp;P1;durP1;ratioP1;P2;durP2;ratioP2
54143;SDS011;40050;47.324;18.792;2023-07-13T00:00:39;5.38;;;2.88;;
54143;SDS011;40050;47.324;18.792;2023-07-13T00:02:37;5.96;;;2.68;;
54143;SDS011;40050;47.324;18.792;2023-07-13T00:04:38;10.28;;;2.88;;
54143;SDS011;40050;47.324;18.792;2023-07-13T00:06:39;4.90;;;2.39;;
54143;SDS011;40050;47.324;18.792;2023-07-13T00:08:40;7.22;;;2.88;;
54143;SDS011;40050;47.324;18.792;2023-07-13T00:10:41;4.62;;;2.49;;
54143;SDS011;40050;47.324;18.792;2023-07-13T00:12:58;6.84;;;2.59;;
54143;SDS011;40050;47.324;18.792;2023-07-13T00:15:01;3.86;;;2.39;;
54143;SDS011;40050;47.324;18.792;2023-07-13T00:17:01;4.63;;;2.59;;
54143;SDS011;40050;47.324;18.792;2023-07-13T00:19:02;5.59;;;2.69;;
54143;SDS011;40050;47.324;18.792;2023-07-13T00:21:03;7.33;;;2.79;;
54143;SDS011;40050;47.324;18.792;2023-07-13T00:23:03;5.12;;;2.79;;
54143;SDS011;40050;47.324;18.792;2023-07-13T00:25:05;5.51;;;2.69;;
54143;SDS011;40050;47.324;18.792;2023-07-13T00:27:05;6.57;;;2.59;;
54143;SDS011;40050;47.324;18.792;2023-07-13T00:29:06;4.45;;;2.39;;
54143;SDS011;40050;47.324;18.792;2023-07-13T00:31:08;6.58;;;2.39;;
54143;SDS011;40050;47.324;18.792;2023-07-13T00:33:08;6.67;;;2.59;;
54143;SDS011;40050;47.324;18.792;2023-07-13T00:35:09;5.80;;;1.99;;
54143;SDS011;40050;47.324;18.792;2023-07-13T00:37:10;6.97;;;2.29;;
54143;SDS011;40050;47.324;18.792;2023-07-13T00:39:12;5.43;;;2.29;;
54143;SDS011;40050;47.324;18.792;2023-07-13T00:41:12;7.85;;;2.49;;
54143;SDS011;40050;47.324;18.792;2023-07-13T00:43:15;4.56;;;2.49;;
54143;SDS011;40050;47.324;18.792;2023-07-13T00:47:27;3.78;;;1.99;;
54143;SDS011;40050;47.324;18.792;2023-07-13T00:49:30;6.31;;;2.19;;
54143;SDS011;40050;47.324;18.792;2023-07-13T00:51:43;4.08;;;2.19;;
54143;SDS011;40050;47.324;18.792;2023-07-13T00:53:33;6.32;;;1.99;;
54143;SDS011;40050;47.324;18.792;2023-07-13T00:55:34;4.86;;;1.99;;
54143;SDS011;40050;47.324;18.792;2023-07-13T00:57:37;4.08;;;1.89;;
54143;SDS011;40050;47.324;18.792;2023-07-13T00:59:39;4.37;;;1.79;;
54143;SDS011;40050;47.324;18.792;2023-07-13T01:01:40;6.22;;;1.89;;
54143;SDS011;40050;47.324;18.792;2023-07-13T01:03:41;4.96;;;1.89;;
54143;SDS011;40050;47.324;18.792;2023-07-13T01:05:49;3.40;;;1.69;;
54143;SDS011;40050;47.324;18.792;2023-07-13T01:07:47;4.28;;;1.89;;
54143;SDS011;40050;47.324;18.792;2023-07-13T01:09:48;5.05;;;2.39;;
54143;SDS011;40050;47.324;18.792;2023-07-13T01:11:50;3.50;;;1.89;;
54143;SDS011;40050;47.324;18.792;2023-07-13T01:13:51;4.17;;;2.29;;
54143;SDS011;40050;47.324;18.792;2023-07-13T01:16:13;3.88;;;2.09;;
54143;SDS011;40050;47.324;18.792;2023-07-13T01:18:10;4.18;;;1.79;;
54143;SDS011;40050;47.324;18.792;2023-07-13T01:20:12;7.57;;;1.99;;
54143;SDS011;40050;47.324;18.792;2023-07-13T01:22:18;4.56;;;2.19;;
54143;SDS011;40050;47.324;18.792;2023-07-13T01:24:14;3.98;;;2.09;;
54143;SDS011;40050;47.324;18.792;2023-07-13T01:26:15;4.17;;;1.99;;
54143;SDS011;40050;47.324;18.792;2023-07-13T01:28:16;5.33;;;2.09;;
54143;SDS011;40050;47.324;18.792;2023-07-13T01:30:17;3.29;;;1.99;;
54143;SDS011;40050;47.324;18.792;2023-07-13T01:32:19;5.13;;;2.09;;
54143;SDS011;40050;47.324;18.792;2023-07-13T01:34:18;5.81;;;1.79;;
54143;SDS011;40050;47.324;18.792;2023-07-13T01:36:19;6.68;;;2.09;;
54143;SDS011;40050;47.324;18.792;2023-07-13T01:38:21;5.32;;;2.39;;
54143;SDS011;40050;47.324;18.792;2023-07-13T01:40:21;4.35;;;2.39;;
54143;SDS011;40050;47.324;18.792;2023-07-13T01:42:22;4.93;;;2.19;;
54143;SDS011;40050;47.324;18.792;2023-07-13T01:44:23;3.48;;;2.09;;
54143;SDS011;40050;47.324;18.792;2023-07-13T01:46:24;4.54;;;2.29;;
54143;SDS011;40050;47.324;18.792;2023-07-13T01:48:25;3.96;;;1.99;;
54143;SDS011;40050;47.324;18.792;2023-07-13T01:50:26;3.87;;;2.09;;
54143;SDS011;40050;47.324;18.792;2023-07-13T01:52:27;4.26;;;1.99;;
54143;SDS011;40050;47.324;18.792;2023-07-13T01:54:28;4.74;;;1.89;;
54143;SDS011;40050;47.324;18.792;2023-07-13T01:56:28;3.96;;;2.09;;
54143;SDS011;40050;47.324;18.792;2023-07-13T01:58:29;3.68;;;1.99;;
54143;SDS011;40050;47.324;18.792;2023-07-13T02:00:30;3.96;;;2.19;;
54143;SDS011;40050;47.324;18.792;2023-07-13T02:02:31;2.61;;;2.19;;
54143;SDS011;40050;47.324;18.792;2023-07-13T02:04:33;3.48;;;1.99;;
54143;SDS011;40050;47.324;18.792;2023-07-13T02:06:34;2.89;;;1.99;;
54143;SDS011;40050;47.324;18.792;2023-07-13T02:08:36;5.59;;;2.29;;
54143;SDS011;40050;47.324;18.792;2023-07-13T02:10:37;3.57;;;2.19;;
54143;SDS011;40050;47.324;18.792;2023-07-13T02:12:38;5.21;;;2.09;;
54143;SDS011;40050;47.324;18.792;2023-07-13T02:14:39;3.97;;;2.19;;
54143;SDS011;40050;47.324;18.792;2023-07-13T02:16:40;3.68;;;2.09;;
54143;SDS011;40050;47.324;18.792;2023-07-13T02:18:40;5.22;;;2.09;;
54143;SDS011;40050;47.324;18.792;2023-07-13T02:20:41;5.51;;;2.19;;
54143;SDS011;40050;47.324;18.792;2023-07-13T02:22:42;5.79;;;2.29;;
54143;SDS011;40050;47.324;18.792;2023-07-13T02:24:43;5.31;;;2.19;;
54143;SDS011;40050;47.324;18.792;2023-07-13T02:26:44;4.64;;;2.19;;
54143;SDS011;40050;47.324;18.792;2023-07-13T02:28:45;5.02;;;1.99;;
54143;SDS011;40050;47.324;18.792;2023-07-13T02:30:46;3.19;;;2.09;;
54143;SDS011;40050;47.324;18.792;2023-07-13T02:32:47;4.63;;;2.09;;
54143;SDS011;40050;47.324;18.792;2023-07-13T02:34:48;4.05;;;1.99;;
54143;SDS011;40050;47.324;18.792;2023-07-13T02:36:49;4.72;;;2.29;;
54143;SDS011;40050;47.324;18.792;2023-07-13T02:38:50;4.43;;;2.39;;
54143;SDS011;40050;47.324;18.792;2023-07-13T02:40:50;6.83;;;2.19;;
54143;SDS011;40050;47.324;18.792;2023-07-13T02:42:51;4.90;;;2.29;;
54143;SDS011;40050;47.324;18.792;2023-07-13T02:44:52;4.23;;;2.49;;
54143;SDS011;40050;47.324;18.792;2023-07-13T02:46:53;4.04;;;2.39;;
54143;SDS011;40050;47.324;18.792;2023-07-13T02:48:54;5.57;;;2.39;;
54143;SDS011;40050;47.324;18.792;2023-07-13T02:50:55;4.13;;;2.39;;
54143;SDS011;40050;47.324;18.792;2023-07-13T02:52:56;5.18;;;2.29;;
54143;SDS011;40050;47.324;18.792;2023-07-13T02:54:57;4.99;;;2.29;;
54143;SDS011;40050;47.324;18.792;2023-07-13T02:56:59;3.83;;;2.38;;
54143;SDS011;40050;47.324;18.792;2023-07-13T02:59:00;6.71;;;2.78;;
54143;SDS011;40050;47.324;18.792;2023-07-13T03:01:05;3.83;;;2.28;;
54143;SDS011;40050;47.324;18.792;2023-07-13T03:03:02;3.45;;;2.38;;
54143;SDS011;40050;47.324;18.792;2023-07-13T03:05:04;5.46;;;2.28;;
54143;SDS011;40050;47.324;18.792;2023-07-13T03:07:04;4.02;;;2.38;;
54143;SDS011;40050;47.324;18.792;2023-07-13T03:09:05;4.78;;;2.48;;
54143;SDS011;40050;47.324;18.792;2023-07-13T03:11:10;3.63;;;2.38;;
54143;SDS011;40050;47.324;18.792;2023-07-13T03:13:07;4.39;;;2.48;;
54143;SDS011;40050;47.324;18.792;2023-07-13T03:15:08;5.53;;;2.58;;
54143;SDS011;40050;47.324;18.792;2023-07-13T03:17:09;3.81;;;2.58;;
54143;SDS011;40050;47.324;18.792;2023-07-13T03:19:10;5.33;;;2.48;;
54143;SDS011;40050;47.324;18.792;2023-07-13T03:21:11;6.56;;;2.48;;
54143;SDS011;40050;47.324;18.792;2023-07-13T03:23:12;9.22;;;2.78;;
54143;SDS011;40050;47.324;18.792;2023-07-13T03:25:13;3.32;;;2.38;;
54143;SDS011;40050;47.324;18.792;2023-07-13T03:27:14;3.42;;;2.28;;
54143;SDS011;40050;47.324;18.792;2023-07-13T03:29:15;6.35;;;2.58;;
54143;SDS011;40050;47.324;18.792;2023-07-13T03:31:17;7.10;;;2.67;;
54143;SDS011;40050;47.324;18.792;2023-07-13T03:33:16;7.76;;;2.67;;
54143;SDS011;40050;47.324;18.792;2023-07-13T03:35:17;3.22;;;2.48;;
54143;SDS011;40050;47.324;18.792;2023-07-13T03:37:18;3.50;;;2.38;;
54143;SDS011;40050;47.324;18.792;2023-07-13T03:39:24;3.12;;;2.08;;
54143;SDS011;40050;47.324;18.792;2023-07-13T03:41:25;4.06;;;2.18;;
54143;SDS011;40050;47.324;18.792;2023-07-13T03:43:25;4.05;;;2.18;;
54143;SDS011;40050;47.324;18.792;2023-07-13T03:45:26;11.11;;;2.57;;
54143;SDS011;40050;47.324;18.792;2023-07-13T03:47:27;4.14;;;2.18;;
54143;SDS011;40050;47.324;18.792;2023-07-13T03:49:28;4.51;;;2.67;;
54143;SDS011;40050;47.324;18.792;2023-07-13T03:51:29;4.70;;;2.47;;
54143;SDS011;40050;47.324;18.792;2023-07-13T03:53:30;4.42;;;2.57;;
54143;SDS011;40050;47.324;18.792;2023-07-13T03:55:31;5.08;;;2.18;;
54143;SDS011;40050;47.324;18.792;2023-07-13T03:57:32;4.32;;;2.67;;
54143;SDS011;40050;47.324;18.792;2023-07-13T03:59:33;7.24;;;2.87;;
54143;SDS011;40050;47.324;18.792;2023-07-13T04:01:35;6.58;;;2.47;;
54143;SDS011;40050;47.324;18.792;2023-07-13T04:03:36;6.68;;;2.47;;
54143;SDS011;40050;47.324;18.792;2023-07-13T04:05:37;6.40;;;2.37;;
54143;SDS011;40050;47.324;18.792;2023-07-13T04:07:38;4.61;;;2.47;;
54143;SDS011;40050;47.324;18.792;2023-07-13T04:09:39;4.24;;;2.28;;
54143;SDS011;40050;47.324;18.792;2023-07-13T04:11:40;6.02;;;2.27;;
54143;SDS011;40050;47.324;18.792;2023-07-13T04:13:41;5.27;;;2.57;;
54143;SDS011;40050;47.324;18.792;2023-07-13T04:15:42;5.45;;;2.37;;
54143;SDS011;40050;47.324;18.792;2023-07-13T04:17:43;4.13;;;2.17;;
54143;SDS011;40050;47.324;18.792;2023-07-13T04:19:44;3.38;;;2.27;;
54143;SDS011;40050;47.324;18.792;2023-07-13T04:21:45;8.17;;;2.27;;
54143;SDS011;40050;47.324;18.792;2023-07-13T04:23:47;3.57;;;2.27;;
54143;SDS011;40050;47.324;18.792;2023-07-13T04:25:48;2.82;;;1.98;;
54143;SDS011;40050;47.324;18.792;2023-07-13T04:27:49;4.60;;;2.27;;
54143;SDS011;40050;47.324;18.792;2023-07-13T04:29:50;4.69;;;2.37;;
54143;SDS011;40050;47.324;18.792;2023-07-13T04:31:51;6.75;;;1.98;;
54143;SDS011;40050;47.324;18.792;2023-07-13T04:33:52;3.65;;;2.07;;
54143;SDS011;40050;47.324;18.792;2023-07-13T04:35:53;5.61;;;2.17;;
54143;SDS011;40050;47.324;18.792;2023-07-13T04:37:54;7.09;;;2.17;;
54143;SDS011;40050;47.324;18.792;2023-07-13T04:39:54;5.97;;;2.17;;
54143;SDS011;40050;47.324;18.792;2023-07-13T04:41:55;4.28;;;2.07;;
54143;SDS011;40050;47.324;18.792;2023-07-13T04:43:57;4.18;;;2.27;;
54143;SDS011;40050;47.324;18.792;2023-07-13T04:46:02;4.56;;;1.97;;
54143;SDS011;40050;47.324;18.792;2023-07-13T04:48:00;6.32;;;2.37;;
54143;SDS011;40050;47.324;18.792;2023-07-13T04:50:01;4.82;;;2.36;;
54143;SDS011;40050;47.324;18.792;2023-07-13T04:52:02;4.35;;;2.36;;
54143;SDS011;40050;47.324;18.792;2023-07-13T04:54:04;5.64;;;2.56;;
54143;SDS011;40050;47.324;18.792;2023-07-13T04:56:04;6.48;;;2.66;;
54143;SDS011;40050;47.324;18.792;2023-07-13T04:58:05;9.42;;;2.85;;
54143;SDS011;40050;47.324;18.792;2023-07-13T05:00:06;4.70;;;2.36;;
54143;SDS011;40050;47.324;18.792;2023-07-13T05:02:07;5.42;;;2.26;;
54143;SDS011;40050;47.324;18.792;2023-07-13T05:04:08;6.05;;;2.55;;
54143;SDS011;40050;47.324;18.792;2023-07-13T05:06:09;6.14;;;2.45;;
54143;SDS011;40050;47.324;18.792;2023-07-13T05:08:10;5.75;;;2.16;;
54143;SDS011;40050;47.324;18.792;2023-07-13T05:10:11;4.38;;;2.06;;
54143;SDS011;40050;47.324;18.792;2023-07-13T05:12:12;7.08;;;2.15;;
54143;SDS011;40050;47.324;18.792;2023-07-13T05:14:13;5.54;;;2.25;;
54143;SDS011;40050;47.324;18.792;2023-07-13T05:16:14;5.44;;;2.05;;
54143;SDS011;40050;47.324;18.792;2023-07-13T05:18:15;5.05;;;2.24;;
54143;SDS011;40050;47.324;18.792;2023-07-13T05:20:16;4.04;;;2.05;;
54143;SDS011;40050;47.324;18.792;2023-07-13T05:22:16;6.81;;;2.43;;
54143;SDS011;40050;47.324;18.792;2023-07-13T05:24:18;4.74;;;2.14;;
54143;SDS011;40050;47.324;18.792;2023-07-13T05:26:19;4.11;;;1.94;;
54143;SDS011;40050;47.324;18.792;2023-07-13T05:28:20;4.91;;;2.14;;
54143;SDS011;40050;47.324;18.792;2023-07-13T05:30:20;5.26;;;2.14;;
54143;SDS011;40050;47.324;18.792;2023-07-13T05:32:21;3.82;;;2.13;;
54143;SDS011;40050;47.324;18.792;2023-07-13T05:34:22;4.80;;;2.13;;
54143;SDS011;40050;47.324;18.792;2023-07-13T05:36:23;4.45;;;1.84;;
54143;SDS011;40050;47.324;18.792;2023-07-13T05:38:24;3.31;;;1.65;;
54143;SDS011;40050;47.324;18.792;2023-07-13T05:40:25;4.28;;;2.04;;
54143;SDS011;40050;47.324;18.792;2023-07-13T05:42:26;3.65;;;1.65;;
54143;SDS011;40050;47.324;18.792;2023-07-13T05:44:27;4.00;;;1.75;;
54143;SDS011;40050;47.324;18.792;2023-07-13T05:46:28;5.77;;;1.84;;
54143;SDS011;40050;47.324;18.792;2023-07-13T05:48:29;3.28;;;1.65;;
54143;SDS011;40050;47.324;18.792;2023-07-13T05:50:30;4.42;;;1.65;;
54143;SDS011;40050;47.324;18.792;2023-07-13T05:52:31;3.80;;;1.45;;
54143;SDS011;40050;47.324;18.792;2023-07-13T05:54:31;5.04;;;1.45;;
54143;SDS011;40050;47.324;18.792;2023-07-13T05:56:32;3.35;;;1.45;;
54143;SDS011;40050;47.324;18.792;2023-07-13T05:58:33;3.44;;;1.45;;
54143;SDS011;40050;47.324;18.792;2023-07-13T06:00:34;3.52;;;1.55;;
54143;SDS011;40050;47.324;18.792;2023-07-13T06:02:36;2.81;;;1.45;;
54143;SDS011;40050;47.324;18.792;2023-07-13T06:04:37;4.82;;;1.64;;
54143;SDS011;40050;47.324;18.792;2023-07-13T06:06:39;3.68;;;1.74;;
54143;SDS011;40050;47.324;18.792;2023-07-13T06:08:40;2.82;;;1.45;;
54143;SDS011;40050;47.324;18.792;2023-07-13T06:10:41;5.11;;;1.74;;
54143;SDS011;40050;47.324;18.792;2023-07-13T06:12:42;3.69;;;1.74;;
54143;SDS011;40050;47.324;18.792;2023-07-13T06:14:43;3.68;;;1.93;;
54143;SDS011;40050;47.324;18.792;2023-07-13T06:16:44;4.98;;;2.02;;
54143;SDS011;40050;47.324;18.792;2023-07-13T06:18:45;2.71;;;1.83;;
54143;SDS011;40050;47.324;18.792;2023-07-13T06:20:46;4.27;;;1.92;;
54143;SDS011;40050;47.324;18.792;2023-07-13T06:22:47;3.57;;;2.02;;
54143;SDS011;40050;47.324;18.792;2023-07-13T06:24:48;3.57;;;1.83;;
54143;SDS011;40050;47.324;18.792;2023-07-13T06:26:50;2.70;;;2.02;;
54143;SDS011;40050;47.324;18.792;2023-07-13T06:28:51;1.74;;;1.73;;
54143;SDS011;40050;47.324;18.792;2023-07-13T06:30:52;2.44;;;1.73;;
54143;SDS011;40050;47.324;18.792;2023-07-13T06:32:53;4.09;;;2.02;;
54143;SDS011;40050;47.324;18.792;2023-07-13T06:34:54;2.43;;;2.02;;
54143;SDS011;40050;47.324;18.792;2023-07-13T06:36:55;5.37;;;1.92;;
54143;SDS011;40050;47.324;18.792;2023-07-13T06:38:56;3.14;;;2.02;;
54143;SDS011;40050;47.324;18.792;2023-07-13T06:40:57;2.86;;;2.11;;
54143;SDS011;40050;47.324;18.792;2023-07-13T06:42:58;3.27;;;1.91;;
54143;SDS011;40050;47.324;18.792;2023-07-13T06:44:59;2.78;;;2.11;;
54143;SDS011;40050;47.324;18.792;2023-07-13T06:46:59;2.93;;;1.91;;
54143;SDS011;40050;47.324;18.792;2023-07-13T06:49:01;3.53;;;1.82;;
54143;SDS011;40050;47.324;18.792;2023-07-13T06:51:02;3.67;;;1.83;;
54143;SDS011;40050;47.324;18.792;2023-07-13T06:53:02;4.76;;;2.40;;
54143;SDS011;40050;47.324;18.792;2023-07-13T06:55:03;5.78;;;2.40;;
54143;SDS011;40050;47.324;18.792;2023-07-13T06:57:04;3.63;;;2.11;;
54143;SDS011;40050;47.324;18.792;2023-07-13T06:59:05;3.83;;;2.21;;
54143;SDS011;40050;47.324;18.792;2023-07-13T07:01:06;2.72;;;1.93;;
54143;SDS011;40050;47.324;18.792;2023-07-13T07:03:07;3.33;;;2.03;;
54143;SDS011;40050;47.324;18.792;2023-07-13T07:05:08;3.68;;;2.12;;
54143;SDS011;40050;47.324;18.792;2023-07-13T07:07:09;3.34;;;1.93;;
54143;SDS011;40050;47.324;18.792;2023-07-13T07:09:10;2.04;;;1.74;;
54143;SDS011;40050;47.324;18.792;2023-07-13T07:11:12;3.11;;;1.84;;
54143;SDS011;40050;47.324;18.792;2023-07-13T07:13:12;3.57;;;2.04;;
54143;SDS011;40050;47.324;18.792;2023-07-13T07:15:13;3.22;;;1.85;;
54143;SDS011;40050;47.324;18.792;2023-07-13T07:17:14;2.59;;;2.04;;
54143;SDS011;40050;47.324;18.792;2023-07-13T07:19:15;3.39;;;1.85;;
54143;SDS011;40050;47.324;18.792;2023-07-13T07:21:16;3.07;;;1.85;;
54143;SDS011;40050;47.324;18.792;2023-07-13T07:23:17;3.31;;;1.85;;
54143;SDS011;40050;47.324;18.792;2023-07-13T07:25:18;4.75;;;1.95;;
54143;SDS011;40050;47.324;18.792;2023-07-13T07:27:19;2.69;;;1.75;;
54143;SDS011;40050;47.324;18.792;2023-07-13T07:29:20;2.34;;;1.56;;
54143;SDS011;40050;47.324;18.792;2023-07-13T07:31:23;3.77;;;1.66;;
54143;SDS011;40050;47.324;18.792;2023-07-13T07:33:25;2.92;;;1.76;;
54143;SDS011;40050;47.324;18.792;2023-07-13T07:35:25;3.37;;;1.57;;
54143;SDS011;40050;47.324;18.792;2023-07-13T07:37:31;2.45;;;1.76;;
54143;SDS011;40050;47.324;18.792;2023-07-13T07:39:32;3.29;;;1.96;;
54143;SDS011;40050;47.324;18.792;2023-07-13T07:41:34;3.49;;;1.77;;
54143;SDS011;40050;47.324;18.792;2023-07-13T07:43:35;2.87;;;1.77;;
54143;SDS011;40050;47.324;18.792;2023-07-13T07:45:37;4.07;;;1.97;;
54143;SDS011;40050;47.324;18.792;2023-07-13T07:47:38;3.45;;;1.68;;
54143;SDS011;40050;47.324;18.792;2023-07-13T07:49:39;3.27;;;1.78;;
54143;SDS011;40050;47.324;18.792;2023-07-13T07:51:40;2.54;;;1.48;;
54143;SDS011;40050;47.324;18.792;2023-07-13T07:53:41;3.09;;;1.48;;
54143;SDS011;40050;47.324;18.792;2023-07-13T07:55:42;2.07;;;1.58;;
54143;SDS011;40050;47.324;18.792;2023-07-13T07:57:43;2.36;;;1.58;;
54143;SDS011;40050;47.324;18.792;2023-07-13T07:59:44;2.35;;;1.78;;
54143;SDS011;40050;47.324;18.792;2023-07-13T08:01:45;3.13;;;1.49;;
54143;SDS011;40050;47.324;18.792;2023-07-13T08:03:46;1.81;;;1.29;;
54143;SDS011;40050;47.324;18.792;2023-07-13T08:05:47;2.58;;;1.69;;
54143;SDS011;40050;47.324;18.792;2023-07-13T08:07:48;3.44;;;1.59;;
54143;SDS011;40050;47.324;18.792;2023-07-13T08:09:51;2.58;;;1.49;;
54143;SDS011;40050;47.324;18.792;2023-07-13T08:11:49;2.69;;;1.39;;
54143;SDS011;40050;47.324;18.792;2023-07-13T08:13:50;3.56;;;1.59;;
54143;SDS011;40050;47.324;18.792;2023-07-13T08:15:52;2.97;;;1.99;;
54143;SDS011;40050;47.324;18.792;2023-07-13T08:17:52;4.32;;;1.39;;
54143;SDS011;40050;47.324;18.792;2023-07-13T08:19:54;2.79;;;1.49;;
54143;SDS011;40050;47.324;18.792;2023-07-13T08:21:54;2.31;;;1.49;;
54143;SDS011;40050;47.324;18.792;2023-07-13T08:23:55;2.40;;;1.59;;
54143;SDS011;40050;47.324;18.792;2023-07-13T08:25:56;4.15;;;1.49;;
54143;SDS011;40050;47.324;18.792;2023-07-13T08:27:58;2.32;;;1.39;;
54143;SDS011;40050;47.324;18.792;2023-07-13T08:29:59;2.42;;;1.39;;
54143;SDS011;40050;47.324;18.792;2023-07-13T08:32:00;2.43;;;1.39;;
54143;SDS011;40050;47.324;18.792;2023-07-13T08:34:01;3.69;;;1.39;;
54143;SDS011;40050;47.324;18.792;2023-07-13T08:36:02;2.14;;;1.40;;
54143;SDS011;40050;47.324;18.792;2023-07-13T08:38:02;2.73;;;1.60;;
54143;SDS011;40050;47.324;18.792;2023-07-13T08:40:04;3.12;;;1.30;;
54143;SDS011;40050;47.324;18.792;2023-07-13T08:42:07;1.95;;;1.40;;
54143;SDS011;40050;47.324;18.792;2023-07-13T08:44:11;2.74;;;1.50;;
54143;SDS011;40050;47.324;18.792;2023-07-13T08:46:20;1.96;;;1.40;;
54143;SDS011;40050;47.324;18.792;2023-07-13T08:48:30;2.65;;;1.30;;
54143;SDS011;40050;47.324;18.792;2023-07-13T08:50:22;1.86;;;1.00;;
54143;SDS011;40050;47.324;18.792;2023-07-13T08:52:37;3.62;;;1.50;;
54143;SDS011;40050;47.324;18.792;2023-07-13T08:56:36;2.16;;;1.20;;
54143;SDS011;40050;47.324;18.792;2023-07-13T08:58:42;2.26;;;1.20;;
54143;SDS011;40050;47.324;18.792;2023-07-13T09:00:46;1.87;;;1.20;;
54143;SDS011;40050;47.324;18.792;2023-07-13T09:02:54;1.57;;;1.00;;
54143;SDS011;40050;47.324;18.792;2023-07-13T09:05:04;2.65;;;1.00;;
54143;SDS011;40050;47.324;18.792;2023-07-13T09:07:14;2.46;;;1.20;;
54143;SDS011;40050;47.324;18.792;2023-07-13T09:11:33;2.76;;;1.10;;
54143;SDS011;40050;47.324;18.792;2023-07-13T09:13:37;1.28;;;1.20;;
54143;SDS011;40050;47.324;18.792;2023-07-13T09:15:41;3.55;;;1.10;;
54143;SDS011;40050;47.324;18.792;2023-07-13T09:17:47;1.87;;;1.10;;
54143;SDS011;40050;47.324;18.792;2023-07-13T09:19:49;2.17;;;1.10;;
54143;SDS011;40050;47.324;18.792;2023-07-13T09:21:53;1.78;;;1.10;;
54143;SDS011;40050;47.324;18.792;2023-07-13T09:23:59;1.78;;;1.10;;
54143;SDS011;40050;47.324;18.792;2023-07-13T09:26:02;3.16;;;1.00;;
54143;SDS011;40050;47.324;18.792;2023-07-13T09:28:16;1.48;;;1.00;;
54143;SDS011;40050;47.324;18.792;2023-07-13T09:32:14;2.97;;;1.30;;
54143;SDS011;40050;47.324;18.792;2023-07-13T09:34:14;2.67;;;1.40;;
54143;SDS011;40050;47.324;18.792;2023-07-13T09:36:20;2.48;;;1.40;;
54143;SDS011;40050;47.324;18.792;2023-07-13T09:38:18;1.69;;;1.20;;
54143;SDS011;40050;47.324;18.792;2023-07-13T09:40:27;2.38;;;1.50;;
54143;SDS011;40050;47.324;18.792;2023-07-13T09:42:32;3.57;;;1.50;;
54143;SDS011;40050;47.324;18.792;2023-07-13T09:44:55;1.78;;;1.20;;
54143;SDS011;40050;47.324;18.792;2023-07-13T09:46:52;3.97;;;1.40;;
54143;SDS011;40050;47.324;18.792;2023-07-13T09:48:53;4.96;;;1.40;;
54143;SDS011;40050;47.324;18.792;2023-07-13T09:50:54;3.47;;;1.30;;
54143;SDS011;40050;47.324;18.792;2023-07-13T09:52:56;2.28;;;1.10;;
54143;SDS011;40050;47.324;18.792;2023-07-13T09:54:57;1.59;;;1.20;;
54143;SDS011;40050;47.324;18.792;2023-07-13T09:57:03;1.79;;;1.20;;
54143;SDS011;40050;47.324;18.792;2023-07-13T09:59:16;1.79;;;1.20;;
54143;SDS011;40050;47.324;18.792;2023-07-13T10:01:07;2.28;;;1.40;;
54143;SDS011;40050;47.324;18.792;2023-07-13T10:03:19;3.67;;;1.40;;
54143;SDS011;40050;47.324;18.792;2023-07-13T10:05:13;4.57;;;1.40;;
54143;SDS011;40050;47.324;18.792;2023-07-13T10:07:12;2.58;;;1.40;;
54143;SDS011;40050;47.324;18.792;2023-07-13T10:09:17;3.97;;;1.60;;
54143;SDS011;40050;47.324;18.792;2023-07-13T10:11:14;2.58;;;1.40;;
54143;SDS011;40050;47.324;18.792;2023-07-13T10:13:23;1.99;;;1.30;;
54143;SDS011;40050;47.324;18.792;2023-07-13T10:15:17;3.47;;;1.50;;
54143;SDS011;40050;47.324;18.792;2023-07-13T10:17:17;2.28;;;1.30;;
54143;SDS011;40050;47.324;18.792;2023-07-13T10:19:25;2.28;;;1.20;;
54143;SDS011;40050;47.324;18.792;2023-07-13T10:21:38;2.78;;;1.30;;
54143;SDS011;40050;47.324;18.792;2023-07-13T10:23:42;4.47;;;2.10;;
54143;SDS011;40050;47.324;18.792;2023-07-13T10:25:47;4.07;;;1.90;;
54143;SDS011;40050;47.324;18.792;2023-07-13T10:27:50;1.99;;;1.40;;
54143;SDS011;40050;47.324;18.792;2023-07-13T10:30:02;2.39;;;1.40;;
54143;SDS011;40050;47.324;18.792;2023-07-13T10:31:52;5.57;;;1.50;;
54143;SDS011;40050;47.324;18.792;2023-07-13T10:33:53;2.39;;;1.30;;
54143;SDS011;40050;47.324;18.792;2023-07-13T10:35:58;6.16;;;2.00;;
54143;SDS011;40050;47.324;18.792;2023-07-13T10:38:07;2.78;;;1.50;;
54143;SDS011;40050;47.324;18.792;2023-07-13T10:39:59;2.58;;;1.20;;
54143;SDS011;40050;47.324;18.792;2023-07-13T10:42:03;8.55;;;4.90;;
54143;SDS011;40050;47.324;18.792;2023-07-13T10:44:20;1.99;;;1.40;;
54143;SDS011;40050;47.324;18.792;2023-07-13T10:46:17;2.48;;;1.70;;
54143;SDS011;40050;47.324;18.792;2023-07-13T10:48:17;3.48;;;1.40;;
54143;SDS011;40050;47.324;18.792;2023-07-13T10:50:26;1.99;;;1.20;;
54143;SDS011;40050;47.324;18.792;2023-07-13T10:52:42;2.29;;;1.10;;
54143;SDS011;40050;47.324;18.792;2023-07-13T10:54:45;2.09;;;1.20;;
54143;SDS011;40050;47.324;18.792;2023-07-13T10:57:10;2.09;;;1.10;;
54143;SDS011;40050;47.324;18.792;2023-07-13T10:59:09;1.69;;;1.00;;
54143;SDS011;40050;47.324;18.792;2023-07-13T11:01:06;1.99;;;1.20;;
54143;SDS011;40050;47.324;18.792;2023-07-13T11:03:04;1.99;;;1.30;;
54143;SDS011;40050;47.324;18.792;2023-07-13T11:05:18;3.08;;;1.40;;
54143;SDS011;40050;47.324;18.792;2023-07-13T11:07:24;2.09;;;1.20;;
54143;SDS011;40050;47.324;18.792;2023-07-13T11:09:33;1.99;;;1.30;;
54143;SDS011;40050;47.324;18.792;2023-07-13T11:11:34;1.59;;;1.10;;
54143;SDS011;40050;47.324;18.792;2023-07-13T11:15:45;2.29;;;1.30;;
54143;SDS011;40050;47.324;18.792;2023-07-13T11:18:04;1.79;;;1.10;;
54143;SDS011;40050;47.324;18.792;2023-07-13T11:20:20;1.59;;;1.10;;
54143;SDS011;40050;47.324;18.792;2023-07-13T11:24:58;2.59;;;1.20;;
54143;SDS011;40050;47.324;18.792;2023-07-13T11:27:22;1.49;;;1.20;;
54143;SDS011;40050;47.324;18.792;2023-07-13T11:29:33;1.29;;;1.00;;
54143;SDS011;40050;47.324;18.792;2023-07-13T11:31:36;1.99;;;1.30;;
54143;SDS011;40050;47.324;18.792;2023-07-13T11:33:56;2.39;;;1.20;;
54143;SDS011;40050;47.324;18.792;2023-07-13T11:36:02;2.09;;;1.20;;
54143;SDS011;40050;47.324;18.792;2023-07-13T11:37:59;3.09;;;1.10;;
54143;SDS011;40050;47.324;18.792;2023-07-13T11:40:11;2.09;;;1.10;;
54143;SDS011;40050;47.324;18.792;2023-07-13T11:42:09;2.59;;;1.30;;
54143;SDS011;40050;47.324;18.792;2023-07-13T11:44:19;4.57;;;1.50;;
54143;SDS011;40050;47.324;18.792;2023-07-13T11:46:19;2.19;;;1.30;;
54143;SDS011;40050;47.324;18.792;2023-07-13T11:48:26;2.29;;;1.40;;
54143;SDS011;40050;47.324;18.792;2023-07-13T11:50:20;4.18;;;1.30;;
54143;SDS011;40050;47.324;18.792;2023-07-13T11:52:22;2.79;;;1.30;;
54143;SDS011;40050;47.324;18.792;2023-07-13T11:54:29;3.08;;;1.50;;
54143;SDS011;40050;47.324;18.792;2023-07-13T11:56:23;2.29;;;1.50;;
54143;SDS011;40050;47.324;18.792;2023-07-13T11:58:31;2.59;;;1.30;;
54143;SDS011;40050;47.324;18.792;2023-07-13T12:00:35;2.89;;;1.50;;
54143;SDS011;40050;47.324;18.792;2023-07-13T12:02:46;2.09;;;1.70;;
54143;SDS011;40050;47.324;18.792;2023-07-13T12:05:00;2.59;;;1.60;;
54143;SDS011;40050;47.324;18.792;2023-07-13T12:07:04;3.48;;;1.70;;
54143;SDS011;40050;47.324;18.792;2023-07-13T12:09:14;3.48;;;1.60;;
54143;SDS011;40050;47.324;18.792;2023-07-13T12:11:17;2.49;;;1.70;;
54143;SDS011;40050;47.324;18.792;2023-07-13T12:13:17;2.69;;;1.60;;
54143;SDS011;40050;47.324;18.792;2023-07-13T12:15:22;2.69;;;1.70;;
54143;SDS011;40050;47.324;18.792;2023-07-13T12:17:24;2.49;;;1.70;;